Eveleth Airport

About
Name: Eveleth Airport
Identifier:  EVM/KEVM
Local Time:  18. Aug 00:19 CDT
Location
Flights per Day
0 flights
Distance: 288km (179mi)
Punctuality
0% (0 flights per day delayed)
Delay Average: 21 minutes
Current Weather
 20 C (Humidity: 72%)
  5kt (9km/h / 5mph) from 190°
  Overcast at 9,500 feet (2,895 meter)
  16km (10 mi.)
 METAR KEVM 180443Z AUTO 19005KT 10SM OVC095 20/15 A2976 RMK AO2

Current Flights

Departures
Number Departure To Airline
Arrivals
Number Arrival From Airline

Current Delays

Departures
N/A
Arrivals
N/A

Destinations

Top Destinations
Airport Flights
per week
Seats
per week
  Minneapolis (MSP) 2 - 0 0
  Minneapolis (QQA) 0 - 0 0

Airlines & Planes

Top Airlines
Airline Flights
per Day
Seats
per Day
  Flybe Nordic 0 -
Top Plane Types
Model Flights Seats
Beech C-99 Airliner 0.1/day - 0
Cirrus SR22 0.0/day - 0